Terminal Aerodrome Forecast
Issued by NWS Norman, OK

Home | Current Version | Previous Version | Text Only | Print | Product List | Glossary On
Versions: 1 2 3 4 5 6 7 8 9 10 11 12 13 14 15 16 17 18 19 20 21 22 23 24 25 26
916
FTUS44 KOUN 271126
TAFSPS
TAF
KSPS 271126Z 2712/2812 33012KT P6SM SCT015
      TEMPO 2712/2714 BKN015
     FM271800 01006KT P6SM FEW250
     FM280000 08006KT P6SM FEW250=

USA.gov is the U.S. government's official web portal to all federal, state and local government web resources and services.